map of ETH home
ETH - Airport
Location
City:  Eilat, Israel
Name:Eilat Airport
Old (Alt.):J. Hozman Airport
ICAO:LLET
IATA:ETH

Details
Type:Airport (Aerodrome, Airfield)
Use:Public/Civil, Military
Latitude:2933'41"N (29.561281)
Longitude:3457'36"E (34.960081)
Datum:WGS 1984
Elevation:42 ft (13 m)
Variation:4.50E (WMM2015 magnetic declination)
0.08 annual change
Runways:1
Longest:6234 × 89 ft (1900 × 27 m), paved

Time
Time Zone:UTC+2 (DST+3)
Local Time:

Weather
METAR:LLET 140950Z 03010KT CAVOK 23/12 Q1009 RMK FEW080
TAF:LLET 140509Z 1406/1506 36010KT 9999 FEW050 PROB30 1409/1505 7000 RA FEW040TCU SCT050 TX26/1412Z TN17/1504Z

Related Locations
Nearby:
Farthest:RVV: 12009 mi / 19327 km
Raivavae, Tubuai Islands, Austral Islands, PF

Find:

   beyond  
but within

Other Information
Maps:
NOTAMs:
Links:
Sources:

  
  • flag of Israel
  • flag of Israeli Air Force
  

Sectional Chart

Flight Planning
at skyvector.com

Satellite Image

Google Maps Satellite view

 

Copyright © 2004-2018 Karl L. Swartz. All rights reserved.
The Great Circle Mapper name and logo are trademarks of the Great Circle Mapper.
All other trademarks mentioned herein belong to their respective owners.
Please see credits for attibutions and further copyright information.

  Follow gcmap on Facebook Follow gcmap on Twitter Follow gcmap on Google+ GCmap on LinkedIn

hCard Microformat

Geo Microformat